createdAt,value
2023-04-04T00:01:53.800Z,35.49
2023-04-04T00:06:59.172Z,36.15
2023-04-04T00:12:04.937Z,35.32
2023-04-04T00:17:09.987Z,35.81
2023-04-04T00:22:19.548Z,35.48
2023-04-04T00:27:24.881Z,35.50
2023-04-04T00:32:30.022Z,35.86
2023-04-04T00:37:35.755Z,35.07
2023-04-04T00:42:41.140Z,35.42
2023-04-04T00:47:46.686Z,35.07
2023-04-04T00:52:52.731Z,34.48
2023-04-04T00:58:00.134Z,33.91
2023-04-04T01:03:08.947Z,34.09
2023-04-04T01:08:14.338Z,33.84
2023-04-04T01:13:19.768Z,34.63
2023-04-04T01:18:26.983Z,35.05
2023-04-04T01:23:51.937Z,35.32
2023-04-04T01:29:00.051Z,36.21
2023-04-04T01:34:40.064Z,37.70
2023-04-04T01:39:58.537Z,38.57
2023-04-04T01:45:04.184Z,40.08
2023-04-04T01:50:13.634Z,40.33
2023-04-04T01:55:19.123Z,39.35
2023-04-04T02:00:24.323Z,40.70
2023-04-04T02:05:29.794Z,40.16
2023-04-04T02:10:35.021Z,41.17
2023-04-04T02:15:40.433Z,43.07
2023-04-04T02:20:45.901Z,43.63
2023-04-04T02:25:52.918Z,42.91
2023-04-04T02:30:57.964Z,45.13
2023-04-04T02:36:03.046Z,46.79
2023-04-04T02:41:08.519Z,46.87
2023-04-04T02:46:21.660Z,47.33
2023-04-04T02:51:34.820Z,46.33
2023-04-04T02:56:39.929Z,45.17
2023-04-04T03:01:45.128Z,46.09
2023-04-04T03:06:50.642Z,45.76
2023-04-04T03:11:56.129Z,47.21
2023-04-04T03:17:01.496Z,47.01
2023-04-04T03:22:07.774Z,48.89
2023-04-04T03:27:12.984Z,47.86
2023-04-04T03:32:19.551Z,48.11
2023-04-04T03:37:24.863Z,46.85
2023-04-04T03:42:34.485Z,46.54
2023-04-04T03:47:44.024Z,46.67
2023-04-04T03:52:49.489Z,47.57
2023-04-04T03:57:56.321Z,47.71
2023-04-04T04:03:01.889Z,49.09
2023-04-04T04:08:08.150Z,47.55
2023-04-04T04:13:15.750Z,47.48
2023-04-04T04:18:21.525Z,47.14
2023-04-04T04:23:29.184Z,46.49
2023-04-04T04:28:35.128Z,49.89
2023-04-04T04:33:47.550Z,50.15
2023-04-04T04:38:55.841Z,52.06
2023-04-04T04:44:04.699Z,49.29
2023-04-04T04:49:10.907Z,49.72
2023-04-04T04:54:17.347Z,49.72
2023-04-04T04:59:24.124Z,50.10
2023-04-04T05:04:29.076Z,49.85
2023-04-04T05:09:43.520Z,48.93
2023-04-04T05:14:52.697Z,49.43
2023-04-04T05:19:59.137Z,51.14
2023-04-04T05:25:07.412Z,48.63
2023-04-04T05:30:15.743Z,50.25
2023-04-04T05:35:34.637Z,49.50
2023-04-04T05:40:40.915Z,49.14
2023-04-04T05:45:50.559Z,49.93
2023-04-04T05:50:57.809Z,50.54
2023-04-04T05:56:17.333Z,50.07
2023-04-04T06:01:23.812Z,49.31
2023-04-04T06:06:34.338Z,49.45
2023-04-04T06:11:41.225Z,50.25
2023-04-04T06:16:50.231Z,49.99
2023-04-04T06:21:57.572Z,49.74
2023-04-04T06:27:04.018Z,52.17
2023-04-04T06:32:12.552Z,50.06
2023-04-04T06:37:27.593Z,49.33
2023-04-04T06:42:43.017Z,49.23
2023-04-04T06:47:48.762Z,49.42
2023-04-04T06:52:54.782Z,53.12
2023-04-04T06:58:00.400Z,51.14
2023-04-04T07:03:05.837Z,49.92
2023-04-04T07:08:12.633Z,50.84
2023-04-04T07:13:18.325Z,51.40
2023-04-04T07:18:23.756Z,52.50
2023-04-04T07:23:29.225Z,49.84
2023-04-04T07:28:34.780Z,51.52
2023-04-04T07:33:40.118Z,50.30
2023-04-04T07:38:46.423Z,50.53
2023-04-04T07:43:56.001Z,51.17
2023-04-04T07:49:02.580Z,50.26
2023-04-04T07:54:08.536Z,53.85
2023-04-04T07:59:14.015Z,51.82
2023-04-04T08:04:20.014Z,51.96
2023-04-04T08:09:26.220Z,52.65
2023-04-04T08:14:32.815Z,51.80
2023-04-04T08:19:38.855Z,51.41
2023-04-04T08:24:44.417Z,52.87
2023-04-04T08:29:49.827Z,53.88
2023-04-04T08:34:54.510Z,54.69
2023-04-04T08:39:59.807Z,52.93
2023-04-04T08:45:06.501Z,53.12
2023-04-04T08:50:12.093Z,53.67
2023-04-04T08:55:17.563Z,53.66
2023-04-04T09:00:24.155Z,52.22
2023-04-04T09:05:29.775Z,52.63
2023-04-04T09:10:37.434Z,54.01
2023-04-04T09:15:46.215Z,56.40
2023-04-04T09:20:52.809Z,53.59
2023-04-04T09:26:03.988Z,53.07
2023-04-04T09:31:11.546Z,52.78
2023-04-04T09:36:18.337Z,53.09
2023-04-04T09:41:23.746Z,52.41
2023-04-04T09:46:29.464Z,52.86
2023-04-04T09:51:38.396Z,53.53
2023-04-04T09:56:46.029Z,53.21
2023-04-04T10:01:53.337Z,54.34
2023-04-04T10:07:00.918Z,53.31
2023-04-04T10:12:14.800Z,51.47
2023-04-04T10:17:20.944Z,52.12
2023-04-04T10:22:26.709Z,52.38
2023-04-04T10:27:33.094Z,54.81
2023-04-04T10:33:07.577Z,52.39
2023-04-04T10:38:14.568Z,53.21
2023-04-04T10:43:27.883Z,52.76
2023-04-04T10:48:33.992Z,55.00
2023-04-04T10:53:44.144Z,53.49
2023-04-04T10:58:52.105Z,53.14
2023-04-04T11:04:22.862Z,51.52
2023-04-04T11:09:56.674Z,51.73
2023-04-04T11:15:05.121Z,54.61
2023-04-04T11:20:11.876Z,52.62
2023-04-04T11:25:36.210Z,52.76
2023-04-04T11:30:46.030Z,54.01
2023-04-04T11:35:52.606Z,53.95
2023-04-04T11:40:57.576Z,54.24
2023-04-04T11:46:10.263Z,52.71
2023-04-04T11:51:16.368Z,54.55
2023-04-04T11:56:22.172Z,54.23
2023-04-04T12:01:27.545Z,53.50
2023-04-04T12:06:39.825Z,53.79
2023-04-04T12:11:48.574Z,53.26
2023-04-04T12:16:58.874Z,52.07
2023-04-04T12:22:07.701Z,52.98
2023-04-04T12:27:13.208Z,53.43
2023-04-04T12:32:18.786Z,54.43
2023-04-04T12:37:23.960Z,52.54
2023-04-04T12:42:29.898Z,53.17
2023-04-04T12:47:36.307Z,54.49
2023-04-04T12:52:42.440Z,54.96
2023-04-04T12:57:48.375Z,53.78
2023-04-04T13:02:53.755Z,54.29
2023-04-04T13:08:14.113Z,52.62
2023-04-04T13:13:34.257Z,53.08
2023-04-04T13:18:44.870Z,53.98
2023-04-04T13:23:51.144Z,53.09
2023-04-04T13:28:56.516Z,53.06
2023-04-04T13:34:01.948Z,52.45
2023-04-04T13:39:07.651Z,53.75
2023-04-04T13:44:16.717Z,53.30
2023-04-04T13:49:22.842Z,53.08
2023-04-04T13:54:29.390Z,54.79
2023-04-04T13:59:36.561Z,54.38
2023-04-04T14:04:46.274Z,54.06
2023-04-04T14:09:54.373Z,54.79
2023-04-04T14:15:00.660Z,55.39
2023-04-04T14:20:08.321Z,54.83
2023-04-04T14:25:14.513Z,54.16
2023-04-04T14:30:20.720Z,55.64
2023-04-04T14:35:30.618Z,56.12
2023-04-04T14:40:36.375Z,59.92
2023-04-04T14:45:43.144Z,55.36
2023-04-04T14:50:50.766Z,55.04
2023-04-04T14:55:56.594Z,55.84
2023-04-04T15:01:02.982Z,54.96
2023-04-04T15:06:09.042Z,56.43
2023-04-04T15:11:15.398Z,55.58
2023-04-04T15:16:21.062Z,54.90
2023-04-04T15:21:29.361Z,54.63
2023-04-04T15:26:35.643Z,53.84
2023-04-04T15:31:41.221Z,55.89
2023-04-04T15:36:47.073Z,55.00
2023-04-04T15:41:52.945Z,55.04
2023-04-04T15:46:58.448Z,54.39
2023-04-04T15:52:06.013Z,53.95
2023-04-04T15:57:13.280Z,55.93
2023-04-04T16:02:19.272Z,54.09
2023-04-04T16:07:24.892Z,54.58
2023-04-04T16:12:30.699Z,57.18
2023-04-04T16:17:37.812Z,54.45
2023-04-04T16:22:43.591Z,54.39
2023-04-04T16:27:49.978Z,54.98
2023-04-04T16:32:55.952Z,54.95
2023-04-04T16:38:02.103Z,55.31
2023-04-04T16:43:08.332Z,55.37
2023-04-04T16:48:13.927Z,54.80
2023-04-04T16:53:19.485Z,55.62
2023-04-04T16:58:26.152Z,55.46
2023-04-04T17:03:32.399Z,55.78
2023-04-04T17:08:37.825Z,55.57
2023-04-04T17:13:43.602Z,55.39
2023-04-04T17:18:49.843Z,55.79
2023-04-04T17:23:55.361Z,55.22
2023-04-04T17:29:00.940Z,55.81
2023-04-04T17:34:06.897Z,55.94
2023-04-04T17:39:13.111Z,55.26
2023-04-04T17:44:20.409Z,55.45
2023-04-04T17:49:25.961Z,55.84
2023-04-04T17:54:31.988Z,55.99
2023-04-04T17:59:38.589Z,55.36
2023-04-04T18:04:44.472Z,55.29
2023-04-04T18:09:50.224Z,55.52
2023-04-04T18:14:55.652Z,55.92
2023-04-04T18:20:02.093Z,54.93
2023-04-04T18:25:09.528Z,55.57
2023-04-04T18:30:15.044Z,57.27
2023-04-04T18:35:21.030Z,55.99
2023-04-04T18:40:28.449Z,54.04
2023-04-04T18:45:40.440Z,54.32
2023-04-04T18:50:46.961Z,54.37
2023-04-04T18:55:56.298Z,55.06
2023-04-04T19:01:04.800Z,54.78
2023-04-04T19:06:12.468Z,54.34
2023-04-04T19:11:19.458Z,54.76
2023-04-04T19:16:26.115Z,53.59
2023-04-04T19:21:32.855Z,54.37
2023-04-04T19:26:39.412Z,53.21
2023-04-04T19:31:45.078Z,54.47
2023-04-04T19:36:51.351Z,53.97
2023-04-04T19:41:57.964Z,54.48
2023-04-04T19:47:03.209Z,53.76
2023-04-04T19:52:10.468Z,53.41
2023-04-04T19:57:23.922Z,53.12
2023-04-04T20:02:35.589Z,53.29
2023-04-04T20:07:40.991Z,54.81
2023-04-04T20:12:47.084Z,54.60
2023-04-04T20:17:52.623Z,56.27
2023-04-04T20:22:57.868Z,55.48
2023-04-04T20:28:03.396Z,54.68
2023-04-04T20:33:31.410Z,54.13
2023-04-04T20:38:38.893Z,55.83
2023-04-04T20:43:51.774Z,55.95
2023-04-04T20:49:00.208Z,57.22
2023-04-04T20:54:05.709Z,55.53
2023-04-04T20:59:47.022Z,53.51
2023-04-04T21:04:53.114Z,54.81
2023-04-04T21:09:58.991Z,55.62
2023-04-04T21:15:07.878Z,55.40
2023-04-04T21:20:38.586Z,55.60
2023-04-04T21:25:46.757Z,55.43
2023-04-04T21:30:52.147Z,54.92
2023-04-04T21:35:58.103Z,55.60
2023-04-04T21:41:11.651Z,55.64
2023-04-04T21:46:17.102Z,55.46
2023-04-04T21:51:23.136Z,55.33
2023-04-04T21:56:32.451Z,55.37
2023-04-04T22:01:39.200Z,55.17
2023-04-04T22:06:44.620Z,54.32
2023-04-04T22:11:50.366Z,55.49
2023-04-04T22:17:01.141Z,55.13
2023-04-04T22:22:06.777Z,55.04
2023-04-04T22:27:15.959Z,54.62
2023-04-04T22:32:21.260Z,55.15
2023-04-04T22:37:28.672Z,55.52
2023-04-04T22:42:34.143Z,54.92
2023-04-04T22:47:39.997Z,54.56
2023-04-04T22:52:45.463Z,55.31
2023-04-04T22:57:51.129Z,55.83
2023-04-04T23:02:56.826Z,54.61
2023-04-04T23:08:04.918Z,55.03
2023-04-04T23:13:10.239Z,55.02
2023-04-04T23:18:15.535Z,55.14
2023-04-04T23:23:20.906Z,53.73
2023-04-04T23:28:27.071Z,55.25
2023-04-04T23:33:32.476Z,54.51
2023-04-04T23:38:38.086Z,54.08
2023-04-04T23:43:44.521Z,54.80
2023-04-04T23:48:49.970Z,53.91
2023-04-04T23:53:55.295Z,53.97
2023-04-04T23:59:01.187Z,53.35
